Time;durP1;ratioP1;P1;durP2;ratioP2;P2;SDS_P1;SDS_P2;PMS_P1;PMS_P2;Temp;Humidity;BMP_temperature;BMP_pressure;BME280_temperature;BME280_humidity;BME280_pressure;Samples;Min_cycle;Max_cycle;Signal;HPM_P1;HPM_P2
2023/04/09 00:01:23;;;;;;;;;;;;;;;12.01;81.62;100758.50;5072132;28;19950;-59
2023/04/09 00:03:49;;;;;;;;;;;;;;;11.99;81.86;100755.88;5065102;28;19949;-58
2023/04/09 00:06:14;;;;;;;;;;;;;;;11.94;82.59;100755.97;5069872;28;19921;-58
2023/04/09 00:08:39;;;;;;;;;;;;;;;11.89;82.04;100747.22;5071793;28;19958;-58
2023/04/09 00:11:05;;;;;;;;;;;;;;;11.85;82.04;100748.25;5072023;28;19920;-58
2023/04/09 00:13:30;;;;;;;;;;;;;;;11.81;81.81;100746.56;5061026;28;19935;-59
2023/04/09 00:15:56;;;;;;;;;;;;;;;11.75;81.88;100743.16;5051827;28;19927;-58
2023/04/09 00:18:21;;;;;;;;;;;;;;;11.71;81.91;100752.19;5051915;28;20332;-58
2023/04/09 00:20:46;;;;;;;;;;;;;;;11.65;82.20;100749.66;5054465;28;20017;-58
2023/04/09 00:23:11;;;;;;;;;;;;;;;11.63;82.51;100747.03;5052004;28;19950;-58
2023/04/09 00:25:37;;;;;;;;;;;;;;;11.59;82.85;100749.78;5051797;28;19963;-58
2023/04/09 00:28:02;;;;;;;;;;;;;;;11.54;82.80;100747.25;5060361;28;19974;-59
2023/04/09 00:30:28;;;;;;;;;;;;;;;11.52;82.77;100751.72;5065702;28;20303;-58
2023/04/09 00:32:53;;;;;;;;;;;;;;;11.50;83.65;100747.31;5070896;28;19951;-59
2023/04/09 00:35:19;;;;;;;;;;;;;;;11.43;84.00;100746.59;5062717;28;20001;-58
2023/04/09 00:37:44;;;;;;;;;;;;;;;11.41;83.40;100747.56;5050657;28;19927;-58
2023/04/09 00:40:10;;;;;;;;;;;;;;;11.40;84.34;100748.50;5050827;28;19956;-58
2023/04/09 00:42:36;;;;;;;;;;;;;;;11.38;83.45;100750.31;5055465;28;19935;-58
2023/04/09 00:45:02;;;;;;;;;;;;;;;11.36;83.73;100749.47;5051425;28;19971;-58
2023/04/09 00:47:28;;;;;;;;;;;;;;;11.33;83.17;100744.22;5064947;28;19945;-58
2023/04/09 00:49:54;;;;;;;;;;;;;;;11.28;83.96;100744.34;5070339;28;20394;-58
2023/04/09 00:52:20;;;;;;;;;;;;;;;11.30;83.22;100741.63;5071428;28;19958;-59
2023/04/09 00:54:45;;;;;;;;;;;;;;;11.29;83.67;100745.19;5069050;28;20332;-58
2023/04/09 00:57:11;;;;;;;;;;;;;;;11.28;82.96;100743.44;5052892;28;19959;-58
2023/04/09 00:59:37;;;;;;;;;;;;;;;11.27;83.06;100745.22;5070592;28;19947;-58
2023/04/09 01:02:02;;;;;;;;;;;;;;;11.27;83.10;100753.22;5063685;28;20359;-57
2023/04/09 01:04:27;;;;;;;;;;;;;;;11.24;83.67;100752.41;5069517;28;20426;-57
2023/04/09 01:07:13;;;;;;;;;;;;;;;11.25;83.69;100751.53;5069691;28;20606;-56
2023/04/09 01:09:46;;;;;;;;;;;;;;;11.19;83.35;100747.19;5055173;28;19968;-56
2023/04/09 01:12:28;;;;;;;;;;;;;;;11.17;84.16;100751.69;5070044;28;19939;-56
2023/04/09 01:14:58;;;;;;;;;;;;;;;11.14;83.25;100745.53;5057695;28;19920;-56
2023/04/09 01:17:25;;;;;;;;;;;;;;;11.13;82.95;100749.13;5056064;28;20000;-56
2023/04/09 01:20:00;;;;;;;;;;;;;;;11.12;82.82;100740.25;5069199;28;19917;-56
2023/04/09 01:22:31;;;;;;;;;;;;;;;11.11;83.26;100745.63;5066748;28;19935;-56
2023/04/09 01:25:11;;;;;;;;;;;;;;;11.09;83.75;100755.44;5049786;28;19924;-56
2023/04/09 01:27:42;;;;;;;;;;;;;;;11.06;83.75;100742.19;5054155;28;20414;-56
2023/04/09 01:30:09;;;;;;;;;;;;;;;11.05;84.42;100740.44;5054556;28;19935;-56
2023/04/09 01:32:35;;;;;;;;;;;;;;;11.02;84.42;100751.19;5049349;28;20019;-56
2023/04/09 01:35:01;;;;;;;;;;;;;;;11.02;85.55;100746.69;5052563;28;19949;-56
2023/04/09 01:37:27;;;;;;;;;;;;;;;11.03;84.65;100755.56;5052423;28;20422;-57
2023/04/09 01:39:53;;;;;;;;;;;;;;;11.04;85.21;100752.00;5057256;28;19932;-56
2023/04/09 01:42:18;;;;;;;;;;;;;;;11.04;85.43;100750.22;5048224;28;19986;-56
2023/04/09 01:44:44;;;;;;;;;;;;;;;11.03;84.35;100753.81;5063407;28;19946;-56
2023/04/09 01:47:10;;;;;;;;;;;;;;;11.06;84.77;100752.84;5064409;28;20031;-56
2023/04/09 01:49:36;;;;;;;;;;;;;;;11.04;84.70;100755.53;5067965;28;20041;-57
2023/04/09 01:52:02;;;;;;;;;;;;;;;11.02;84.80;100751.19;5068050;28;20414;-56
2023/04/09 01:54:27;;;;;;;;;;;;;;;11.00;84.76;100751.22;5066639;28;19917;-56
2023/04/09 01:56:52;;;;;;;;;;;;;;;10.99;85.05;100756.56;5053090;28;20381;-56
2023/04/09 01:59:18;;;;;;;;;;;;;;;10.92;85.73;100755.84;5066661;28;19942;-56
2023/04/09 02:01:45;;;;;;;;;;;;;;;10.87;85.89;100751.50;5060740;28;20031;-56
2023/04/09 02:04:16;;;;;;;;;;;;;;;10.84;86.64;100743.59;5049890;28;19951;-56
2023/04/09 02:07:03;;;;;;;;;;;;;;;10.79;87.38;100758.78;5060239;28;19958;-57
2023/04/09 02:09:30;;;;;;;;;;;;;;;10.75;86.70;100750.00;5069608;28;19958;-57
2023/04/09 02:11:57;;;;;;;;;;;;;;;10.72;87.57;100752.72;5056955;28;19916;-56
2023/04/09 02:14:23;;;;;;;;;;;;;;;10.69;87.05;100751.91;5049710;28;20076;-56
2023/04/09 02:16:49;;;;;;;;;;;;;;;10.62;87.90;100749.34;5051823;28;19942;-57
2023/04/09 02:19:14;;;;;;;;;;;;;;;10.52;88.20;100753.16;5049523;28;19947;-56
2023/04/09 02:21:40;;;;;;;;;;;;;;;10.45;88.42;100756.84;5049588;28;19927;-57
2023/04/09 02:24:05;;;;;;;;;;;;;;;10.39;87.67;100748.09;5051599;28;19959;-56
2023/04/09 02:26:30;;;;;;;;;;;;;;;10.31;88.35;100750.91;5060286;28;19957;-56
2023/04/09 02:28:56;;;;;;;;;;;;;;;10.22;88.34;100751.09;5068790;28;20003;-57
2023/04/09 02:31:21;;;;;;;;;;;;;;;10.17;88.66;100750.31;5067673;28;19985;-57
2023/04/09 02:33:46;;;;;;;;;;;;;;;10.14;89.52;100758.34;5068612;28;20371;-56
2023/04/09 02:36:12;;;;;;;;;;;;;;;10.10;89.04;100750.44;5064938;28;19929;-56
2023/04/09 02:38:41;;;;;;;;;;;;;;;10.06;89.03;100756.69;5069599;28;19926;-57
2023/04/09 02:41:06;;;;;;;;;;;;;;;10.04;89.40;100753.19;5063359;28;19917;-57
2023/04/09 02:43:31;;;;;;;;;;;;;;;10.02;90.32;100750.56;5034420;28;19937;-56
2023/04/09 02:45:57;;;;;;;;;;;;;;;9.97;90.56;100760.41;5060261;28;19916;-56
2023/04/09 02:48:22;;;;;;;;;;;;;;;9.94;90.64;100751.59;5068053;28;19990;-56
2023/04/09 02:50:47;;;;;;;;;;;;;;;9.91;90.00;100754.31;5066891;28;19927;-57
2023/04/09 02:53:12;;;;;;;;;;;;;;;9.83;90.24;100751.81;5069137;28;19971;-56
2023/04/09 02:55:38;;;;;;;;;;;;;;;9.79;91.10;100755.41;5060972;28;20446;-56
2023/04/09 02:58:03;;;;;;;;;;;;;;;9.73;90.96;100755.53;5058018;28;19931;-56
2023/04/09 03:00:28;;;;;;;;;;;;;;;9.70;91.22;100750.28;5066945;28;20019;-56
2023/04/09 03:02:53;;;;;;;;;;;;;;;9.65;91.91;100751.25;5050429;28;20269;-56
2023/04/09 03:05:19;;;;;;;;;;;;;;;9.63;91.47;100753.03;5059830;28;20046;-56
2023/04/09 03:07:46;;;;;;;;;;;;;;;9.60;92.02;100747.78;5064956;28;19927;-56
2023/04/09 03:10:11;;;;;;;;;;;;;;;9.63;92.53;100748.63;5069243;28;19956;-56
2023/04/09 03:12:36;;;;;;;;;;;;;;;9.65;92.66;100741.50;5067151;28;19984;-56
2023/04/09 03:15:03;;;;;;;;;;;;;;;9.63;92.42;100740.66;5056485;28;19916;-57
2023/04/09 03:17:30;;;;;;;;;;;;;;;9.59;92.74;100741.59;5069371;28;19959;-57
2023/04/09 03:19:56;;;;;;;;;;;;;;;9.55;92.28;100737.25;5065888;28;19931;-56
2023/04/09 03:22:21;;;;;;;;;;;;;;;9.51;92.13;100746.16;5069457;28;19930;-57
2023/04/09 03:24:46;;;;;;;;;;;;;;;9.50;92.55;100736.47;5066146;28;19916;-56
2023/04/09 03:27:11;;;;;;;;;;;;;;;9.49;92.39;100742.66;5050777;28;19945;-57
2023/04/09 03:29:37;;;;;;;;;;;;;;;9.46;92.40;100747.13;5068962;28;19923;-57
2023/04/09 03:32:02;;;;;;;;;;;;;;;9.43;92.77;100745.41;5055454;28;19931;-56
2023/04/09 03:34:27;;;;;;;;;;;;;;;9.40;92.72;100739.28;5049447;28;19938;-57
2023/04/09 03:36:52;;;;;;;;;;;;;;;9.37;92.92;100737.56;5050977;28;19933;-57
2023/04/09 03:39:18;;;;;;;;;;;;;;;9.30;92.54;100735.91;5048100;28;19931;-57
2023/04/09 03:41:43;;;;;;;;;;;;;;;9.25;92.45;100743.06;5064160;28;20295;-57
2023/04/09 03:44:08;;;;;;;;;;;;;;;9.19;92.73;100740.50;5067284;28;19919;-57
2023/04/09 03:46:33;;;;;;;;;;;;;;;9.10;92.53;100740.63;5056361;28;19924;-56
2023/04/09 03:48:59;;;;;;;;;;;;;;;9.01;92.69;100743.44;5071799;28;19950;-57
2023/04/09 03:51:25;;;;;;;;;;;;;;;8.94;92.70;100737.34;5055142;28;19982;-57
2023/04/09 03:53:51;;;;;;;;;;;;;;;8.89;92.53;100740.97;5051943;28;19923;-56
2023/04/09 03:56:16;;;;;;;;;;;;;;;8.81;93.13;100740.19;5054213;28;19981;-57
2023/04/09 03:58:41;;;;;;;;;;;;;;;8.69;93.36;100743.00;5065153;28;19998;-56
2023/04/09 04:01:06;;;;;;;;;;;;;;;8.59;93.63;100749.31;5053454;28;19930;-56
2023/04/09 04:03:32;;;;;;;;;;;;;;;8.51;93.92;100743.25;5054711;28;19963;-56
2023/04/09 04:06:03;;;;;;;;;;;;;;;8.42;94.17;100736.28;5067850;28;20049;-56
2023/04/09 04:08:29;;;;;;;;;;;;;;;8.36;94.60;100738.13;5062188;28;20422;-57
2023/04/09 04:10:54;;;;;;;;;;;;;;;8.32;94.74;100739.06;5048664;28;19950;-56
2023/04/09 04:13:20;;;;;;;;;;;;;;;8.30;95.11;100746.16;5070346;28;19988;-57
2023/04/09 04:15:45;;;;;;;;;;;;;;;8.29;95.30;100747.03;5053875;28;19994;-56
2023/04/09 04:18:10;;;;;;;;;;;;;;;8.24;95.29;100743.59;5051886;28;19927;-56
2023/04/09 04:20:36;;;;;;;;;;;;;;;8.24;95.40;100748.91;5054227;28;19935;-56
2023/04/09 04:23:01;;;;;;;;;;;;;;;8.21;95.38;100755.06;5051949;28;19927;-56
2023/04/09 04:25:27;;;;;;;;;;;;;;;8.17;95.49;100753.31;5053202;28;20040;-57
2023/04/09 04:27:53;;;;;;;;;;;;;;;8.12;95.59;100749.00;5070083;28;19928;-57
2023/04/09 04:30:19;;;;;;;;;;;;;;;8.04;95.76;100751.69;5072014;28;19933;-56
2023/04/09 04:32:44;;;;;;;;;;;;;;;7.97;95.77;100757.97;5071845;28;19932;-57
2023/04/09 04:35:10;;;;;;;;;;;;;;;7.91;96.03;100755.38;5065614;28;20045;-56
2023/04/09 04:37:35;;;;;;;;;;;;;;;7.87;96.42;100758.97;5052403;28;19977;-56
2023/04/09 04:40:01;;;;;;;;;;;;;;;7.80;96.54;100768.75;5071554;28;19938;-56
2023/04/09 04:42:26;;;;;;;;;;;;;;;7.72;96.47;100767.94;5067554;28;20031;-56
2023/04/09 04:44:52;;;;;;;;;;;;;;;7.70;96.89;100767.06;5052571;28;20374;-57
2023/04/09 04:47:18;;;;;;;;;;;;;;;7.66;97.01;100760.03;5063725;28;19939;-56
2023/04/09 04:49:43;;;;;;;;;;;;;;;7.63;97.59;100764.47;5051203;28;19974;-56
2023/04/09 04:52:08;;;;;;;;;;;;;;;7.60;97.26;100762.75;5051057;28;20364;-56
2023/04/09 04:54:34;;;;;;;;;;;;;;;7.60;97.38;100761.84;5052400;28;19931;-56
2023/04/09 04:57:00;;;;;;;;;;;;;;;7.58;97.30;100769.81;5046515;28;20040;-57
2023/04/09 04:59:25;;;;;;;;;;;;;;;7.55;97.87;100759.25;5052499;28;20305;-56
2023/04/09 05:01:50;;;;;;;;;;;;;;;7.53;97.85;100768.97;5053655;28;19946;-56
2023/04/09 05:04:15;;;;;;;;;;;;;;;7.49;98.04;100767.25;5052952;28;19934;-56
2023/04/09 05:06:41;;;;;;;;;;;;;;;7.49;98.08;100766.38;5068129;28;19942;-56
2023/04/09 05:09:06;;;;;;;;;;;;;;;7.48;97.88;100767.28;5051053;28;20422;-57
2023/04/09 05:11:31;;;;;;;;;;;;;;;7.50;98.21;100774.28;5050025;28;19943;-56
2023/04/09 05:13:56;;;;;;;;;;;;;;;7.54;97.80;100776.03;5049607;28;20003;-57
2023/04/09 05:16:22;;;;;;;;;;;;;;;7.55;98.02;100775.13;5051190;28;20534;-56
2023/04/09 05:18:47;;;;;;;;;;;;;;;7.58;98.80;100776.88;5059142;28;19913;-57
2023/04/09 05:21:12;;;;;;;;;;;;;;;7.61;98.91;100777.72;5069377;28;20451;-56
2023/04/09 05:23:37;;;;;;;;;;;;;;;7.71;100.00;100779.41;5069620;28;19936;-57
2023/04/09 05:26:03;;;;;;;;;;;;;;;7.94;100.00;100776.53;5060243;28;20546;-57
2023/04/09 05:28:28;;;;;;;;;;;;;;;8.59;100.00;100781.13;5061636;28;19944;-56
2023/04/09 05:30:53;;;;;;;;;;;;;;;9.73;100.00;100774.13;5066076;28;20419;-57
2023/04/09 05:33:19;;;;;;;;;;;;;;;10.76;96.17;100773.03;5059381;28;19917;-57
2023/04/09 05:35:44;;;;;;;;;;;;;;;12.06;90.40;100783.25;5070230;28;20060;-56
2023/04/09 05:38:10;;;;;;;;;;;;;;;12.88;82.67;100777.34;5070530;28;19935;-57
2023/04/09 05:40:35;;;;;;;;;;;;;;;13.04;77.81;100774.19;5063426;28;19939;-57
2023/04/09 05:43:00;;;;;;;;;;;;;;;13.03;74.99;100772.44;5050659;28;20428;-56
2023/04/09 05:45:27;;;;;;;;;;;;;;;12.73;73.33;100784.00;5062888;28;20363;-57
2023/04/09 05:47:52;;;;;;;;;;;;;;;12.10;73.08;100784.91;5050826;28;20338;-57
2023/04/09 05:50:18;;;;;;;;;;;;;;;11.63;74.69;100786.09;5050590;28;19920;-57
2023/04/09 05:52:43;;;;;;;;;;;;;;;11.42;77.98;100778.59;5061155;28;19951;-56
2023/04/09 05:55:08;;;;;;;;;;;;;;;11.67;78.49;100785.13;5066761;28;20028;-57
2023/04/09 05:57:34;;;;;;;;;;;;;;;12.05;77.97;100777.03;5049937;28;20010;-56
2023/04/09 05:59:59;;;;;;;;;;;;;;;12.69;76.18;100781.44;5047722;28;20663;-56
2023/04/09 06:02:25;;;;;;;;;;;;;;;13.18;73.63;100777.31;5047817;28;19974;-56
2023/04/09 06:04:50;;;;;;;;;;;;;;;13.53;72.51;100784.22;5049480;28;19987;-57
2023/04/09 06:07:16;;;;;;;;;;;;;;;14.80;66.20;100780.63;5032354;28;20023;-56
2023/04/09 06:09:43;;;;;;;;;;;;;;;16.12;60.35;100786.88;5048804;28;19947;-56
2023/04/09 06:12:08;;;;;;;;;;;;;;;17.17;54.10;100787.44;5049266;28;19967;-57
2023/04/09 06:14:33;;;;;;;;;;;;;;;17.72;50.65;100778.50;5047891;28;20409;-56
2023/04/09 06:16:59;;;;;;;;;;;;;;;17.99;49.43;100781.63;5031614;28;19929;-57
2023/04/09 06:19:24;;;;;;;;;;;;;;;17.73;49.23;100758.72;5029421;28;19981;-57
2023/04/09 06:21:50;;;;;;;;;;;;;;;18.31;48.57;100784.41;5032169;28;19959;-57
2023/04/09 06:24:15;;;;;;;;;;;;;;;18.36;48.03;100787.75;5029258;28;20388;-56
2023/04/09 06:26:40;;;;;;;;;;;;;;;19.09;46.07;100789.22;5029231;28;19924;-57
2023/04/09 06:29:05;;;;;;;;;;;;;;;19.85;45.17;100786.63;5046397;28;19951;-57
2023/04/09 06:31:31;;;;;;;;;;;;;;;20.61;43.60;100785.63;5033003;28;19939;-56
2023/04/09 06:33:56;;;;;;;;;;;;;;;21.07;42.14;100787.25;5029521;28;19913;-57
2023/04/09 06:36:21;;;;;;;;;;;;;;;21.49;41.86;100789.03;5036051;28;19945;-57
2023/04/09 06:38:47;;;;;;;;;;;;;;;21.97;40.67;100800.25;5049359;28;19943;-57
2023/04/09 06:41:13;;;;;;;;;;;;;;;22.25;40.00;100798.38;5049195;28;19917;-57
2023/04/09 06:43:39;;;;;;;;;;;;;;;22.34;39.43;100795.91;5048722;28;19917;-56
2023/04/09 06:46:05;;;;;;;;;;;;;;;22.47;39.77;100801.38;5037066;28;19921;-57
2023/04/09 06:48:30;;;;;;;;;;;;;;;22.24;38.72;100800.22;5028932;28;19959;-57
2023/04/09 06:50:56;;;;;;;;;;;;;;;22.44;40.47;100794.28;5028931;28;19936;-57
2023/04/09 06:53:21;;;;;;;;;;;;;;;22.22;39.07;100801.31;5044531;28;20404;-57
2023/04/09 06:55:46;;;;;;;;;;;;;;;22.18;39.62;100795.22;5050429;28;19966;-57
2023/04/09 06:58:12;;;;;;;;;;;;;;;22.35;39.36;100791.34;5067924;28;20303;-57
2023/04/09 07:00:37;;;;;;;;;;;;;;;22.37;39.29;100793.00;5062875;28;19945;-57
2023/04/09 07:03:03;;;;;;;;;;;;;;;21.88;40.00;100776.47;5048147;28;20274;-57
2023/04/09 07:05:29;;;;;;;;;;;;;;;22.04;40.19;100803.44;5057377;28;20008;-57
2023/04/09 07:07:54;;;;;;;;;;;;;;;22.41;39.88;100799.94;5047894;28;19933;-57
2023/04/09 07:10:20;;;;;;;;;;;;;;;22.31;40.22;100806.97;5037232;28;19966;-57
2023/04/09 07:12:45;;;;;;;;;;;;;;;22.30;40.74;100805.22;5057092;28;19943;-56
2023/04/09 07:15:10;;;;;;;;;;;;;;;22.04;40.92;100798.00;5048485;28;20022;-56
2023/04/09 07:17:36;;;;;;;;;;;;;;;21.33;41.46;100801.84;5052311;28;19985;-57
2023/04/09 07:20:01;;;;;;;;;;;;;;;21.51;41.75;100800.66;5070872;28;19934;-57
2023/04/09 07:22:27;;;;;;;;;;;;;;;21.39;42.32;100804.13;5070663;28;19957;-57
2023/04/09 07:24:53;;;;;;;;;;;;;;;21.20;41.95;100803.59;5053213;28;20354;-57
2023/04/09 07:27:20;;;;;;;;;;;;;;;21.25;42.23;100812.28;5053341;28;19978;-57
2023/04/09 07:29:45;;;;;;;;;;;;;;;21.31;41.58;100803.75;5054954;28;19971;-57
2023/04/09 07:32:10;;;;;;;;;;;;;;;20.78;42.54;100807.97;5068521;28;19938;-57
2023/04/09 07:34:36;;;;;;;;;;;;;;;20.52;42.79;100810.53;5052850;28;19946;-56
2023/04/09 07:37:01;;;;;;;;;;;;;;;20.36;43.55;100813.28;5053157;28;20067;-56
2023/04/09 07:39:27;;;;;;;;;;;;;;;20.41;44.11;100813.03;5054386;28;19979;-57
2023/04/09 07:41:52;;;;;;;;;;;;;;;20.08;43.42;100823.09;5057268;28;19946;-56
2023/04/09 07:44:17;;;;;;;;;;;;;;;19.93;44.74;100822.19;5070469;28;20587;-56
2023/04/09 07:46:43;;;;;;;;;;;;;;;20.09;44.14;100824.84;5068875;28;19937;-56
2023/04/09 07:49:08;;;;;;;;;;;;;;;20.22;44.30;100818.66;5052047;28;20605;-56
2023/04/09 07:51:33;;;;;;;;;;;;;;;20.51;42.25;100823.19;5065570;28;19945;-56
2023/04/09 07:53:58;;;;;;;;;;;;;;;20.36;43.99;100825.94;5057499;28;20043;-56
2023/04/09 07:56:24;;;;;;;;;;;;;;;20.25;43.59;100826.56;5057477;28;20398;-56
2023/04/09 07:58:49;;;;;;;;;;;;;;;20.55;41.93;100821.16;5071438;28;20027;-56
2023/04/09 08:01:15;;;;;;;;;;;;;;;20.13;42.53;100829.13;5057109;28;19944;-56
2023/04/09 08:03:41;;;;;;;;;;;;;;;20.06;42.56;100823.19;5055548;28;20397;-56
2023/04/09 08:06:07;;;;;;;;;;;;;;;19.75;45.32;100823.25;5071366;28;19958;-56
2023/04/09 08:08:32;;;;;;;;;;;;;;;20.50;45.02;100826.84;5070597;28;19964;-57
2023/04/09 08:10:58;;;;;;;;;;;;;;;20.93;41.01;100820.56;5062215;28;19936;-56
2023/04/09 08:13:24;;;;;;;;;;;;;;;21.10;41.23;100815.94;5072318;28;19931;-56
2023/04/09 08:15:49;;;;;;;;;;;;;;;20.89;42.65;100816.28;5072322;28;19943;-57
2023/04/09 08:18:14;;;;;;;;;;;;;;;21.02;42.50;100815.56;5051767;28;19939;-57
2023/04/09 08:20:44;;;;;;;;;;;;;;;21.49;41.16;100821.53;5052391;28;19937;-58
2023/04/09 08:23:12;;;;;;;;;;;;;;;21.89;41.14;100820.69;5052408;28;19927;-56
2023/04/09 08:25:37;;;;;;;;;;;;;;;22.08;40.14;100813.06;5068750;28;20588;-57
2023/04/09 08:28:03;;;;;;;;;;;;;;;21.95;40.88;100823.00;5071053;28;19944;-56
2023/04/09 08:30:28;;;;;;;;;;;;;;;21.96;39.98;100822.88;5071189;28;20000;-57
2023/04/09 08:32:54;;;;;;;;;;;;;;;22.23;37.86;100825.59;5069894;28;19934;-56
2023/04/09 08:35:19;;;;;;;;;;;;;;;22.16;38.79;100824.25;5058722;28;19945;-56
2023/04/09 08:37:44;;;;;;;;;;;;;;;22.54;41.02;100817.13;5050971;28;20512;-56
2023/04/09 08:40:10;;;;;;;;;;;;;;;23.08;38.66;100826.81;5053266;28;19940;-56
2023/04/09 08:42:41;;;;;;;;;;;;;;;23.44;37.84;100818.78;5053612;28;20279;-56
2023/04/09 08:45:08;;;;;;;;;;;;;;;23.54;36.30;100815.41;5071034;28;20055;-56
2023/04/09 08:47:35;;;;;;;;;;;;;;;23.55;36.06;100814.41;5068963;28;19943;-56
2023/04/09 08:50:00;;;;;;;;;;;;;;;23.10;36.27;100814.00;5068190;28;19995;-56
2023/04/09 08:52:32;;;;;;;;;;;;;;;22.75;38.61;100815.63;5069564;28;19968;-56
2023/04/09 08:54:58;;;;;;;;;;;;;;;22.96;37.67;100808.72;5053357;28;19947;-57
2023/04/09 08:57:23;;;;;;;;;;;;;;;22.76;35.96;100811.97;5056745;28;20078;-56
2023/04/09 08:59:48;;;;;;;;;;;;;;;22.52;37.19;100804.63;5066503;28;19939;-56
2023/04/09 09:02:13;;;;;;;;;;;;;;;23.00;35.45;100812.94;5070040;28;19940;-57
2023/04/09 09:04:46;;;;;;;;;;;;;;;23.73;34.45;100813.03;5069773;28;19951;-56
2023/04/09 09:07:11;;;;;;;;;;;;;;;23.60;32.93;100823.97;5069979;28;19949;-56
2023/04/09 09:09:56;;;;;;;;;;;;;;;23.74;33.02;100814.81;5066942;28;19963;-56
2023/04/09 09:12:48;;;;;;;;;;;;;;;23.23;34.90;100809.44;5070369;28;19931;-56
2023/04/09 09:15:27;;;;;;;;;;;;;;;22.48;35.78;100817.53;5065064;28;20410;-56
2023/04/09 09:17:54;;;;;;;;;;;;;;;21.82;34.90;100813.94;5068285;28;20436;-56
2023/04/09 09:20:20;;;;;;;;;;;;;;;21.62;38.05;100806.22;5051732;28;19942;-57
2023/04/09 09:22:50;;;;;;;;;;;;;;;21.64;40.00;100815.13;5050768;28;19935;-56
2023/04/09 09:25:15;;;;;;;;;;;;;;;21.85;39.84;100816.44;5052862;28;20050;-56
2023/04/09 09:27:40;;;;;;;;;;;;;;;22.20;39.78;100820.38;5056308;28;20024;-56
2023/04/09 09:30:06;;;;;;;;;;;;;;;22.55;38.72;100816.16;5070376;28;20041;-58
2023/04/09 09:32:35;;;;;;;;;;;;;;;22.27;36.82;100819.00;5069278;28;20393;-57
2023/04/09 09:35:04;;;;;;;;;;;;;;;21.63;38.55;100819.66;5052468;28;19941;-55
2023/04/09 09:37:30;;;;;;;;;;;;;;;21.40;40.72;100822.13;5065674;28;20113;-56
2023/04/09 09:39:56;;;;;;;;;;;;;;;21.33;41.19;100818.94;5062013;28;20045;-56
2023/04/09 09:42:21;;;;;;;;;;;;;;;21.35;40.14;100817.00;5048548;28;20341;-57
2023/04/09 09:44:47;;;;;;;;;;;;;;;21.42;43.01;100809.34;5053481;28;19947;-56
2023/04/09 09:47:13;;;;;;;;;;;;;;;22.48;40.45;100811.22;5068361;28;19935;-57
2023/04/09 09:49:38;;;;;;;;;;;;;;;22.94;39.50;100801.66;5068287;28;19963;-56
2023/04/09 09:52:07;;;;;;;;;;;;;;;23.74;37.49;100806.66;5068092;28;19988;-56
2023/04/09 09:54:37;;;;;;;;;;;;;;;23.95;36.83;100807.75;5064919;28;19941;-56
2023/04/09 09:57:06;;;;;;;;;;;;;;;23.95;36.88;100796.88;5069035;28;19963;-57
2023/04/09 09:59:34;;;;;;;;;;;;;;;23.61;35.07;100797.69;5068746;28;19935;-56
2023/04/09 10:02:03;;;;;;;;;;;;;;;23.21;35.07;100788.81;5057982;28;19949;-56
2023/04/09 10:04:28;;;;;;;;;;;;;;;23.49;33.93;100793.13;5069431;28;20042;-56
2023/04/09 10:06:55;;;;;;;;;;;;;;;23.77;34.13;100788.28;5057427;28;20055;-56
2023/04/09 10:09:21;;;;;;;;;;;;;;;24.32;35.23;100784.97;5050009;28;19961;-56
2023/04/09 10:11:47;;;;;;;;;;;;;;;24.08;33.11;100787.72;5052035;28;19940;-56
2023/04/09 10:14:13;;;;;;;;;;;;;;;23.36;34.01;100790.44;5052209;28;20713;-56
2023/04/09 10:16:39;;;;;;;;;;;;;;;22.70;35.92;100796.09;5069186;28;19938;-56
2023/04/09 10:19:05;;;;;;;;;;;;;;;21.85;36.55;100787.53;5068985;28;19961;-56
2023/04/09 10:21:34;;;;;;;;;;;;;;;21.65;35.34;100789.75;5057685;28;19943;-56
2023/04/09 10:24:04;;;;;;;;;;;;;;;;;;5069855;28;19937;-56
2023/04/09 10:26:31;;;;;;;;;;;;;;;21.46;33.37;100778.41;5063038;28;19952;-56
2023/04/09 10:29:23;;;;;;;;;;;;;;;21.70;35.75;100782.22;5053854;28;19956;-56
2023/04/09 10:31:52;;;;;;;;;;;;;;;21.92;35.69;100771.72;5045799;28;19963;-56
2023/04/09 10:34:20;;;;;;;;;;;;;;;22.36;37.01;100784.94;5049632;28;19931;-56
2023/04/09 10:36:48;;;;;;;;;;;;;;;22.16;35.03;100767.34;5052164;28;19944;-57
2023/04/09 10:39:14;;;;;;;;;;;;;;;22.60;36.55;100765.16;5049487;28;19936;-57
2023/04/09 10:41:40;;;;;;;;;;;;;;;23.09;35.29;100766.16;5056144;28;19948;-57
2023/04/09 10:44:18;;;;;;;;;;;;;;;23.58;35.10;100763.44;5069881;28;19939;-57
2023/04/09 10:46:44;;;;;;;;;;;;;;;23.72;36.16;100763.31;5066292;28;19947;-57
2023/04/09 10:49:16;;;;;;;;;;;;;;;23.22;34.37;100760.69;5049372;28;20026;-58
2023/04/09 10:51:46;;;;;;;;;;;;;;;22.58;34.87;100763.56;5049599;28;20473;-58
2023/04/09 10:54:31;;;;;;;;;;;;;;;22.44;36.51;100753.63;5050315;28;20450;-57
2023/04/09 10:57:16;;;;;;;;;;;;;;;21.99;34.31;100767.63;5055758;28;19993;-57
2023/04/09 10:59:45;;;;;;;;;;;;;;;21.44;33.51;100764.97;5052775;28;19934;-57
2023/04/09 11:02:48;;;;;;;;;;;;;;;21.37;33.33;100763.63;5056278;28;20420;-58
2023/04/09 11:05:17;;;;;;;;;;;;;;;21.41;32.17;100762.47;5022264;28;19957;-57
2023/04/09 11:08:05;;;;;;;;;;;;;;;22.43;31.74;100751.91;5030500;28;20398;-57
2023/04/09 11:10:33;;;;;;;;;;;;;;;23.50;28.82;100768.59;5035201;28;19950;-57
2023/04/09 11:12:58;;;;;;;;;;;;;;;23.14;29.96;100765.81;5070898;28;19933;-57
2023/04/09 11:15:24;;;;;;;;;;;;;;;23.15;28.92;100764.81;5064355;28;19936;-57
2023/04/09 11:17:49;;;;;;;;;;;;;;;23.15;31.96;100764.81;5055873;28;20031;-57
2023/04/09 11:20:16;;;;;;;;;;;;;;;21.56;30.87;100766.00;5053233;28;19942;-57
2023/04/09 11:22:41;;;;;;;;;;;;;;;20.47;31.04;100755.91;5037435;28;19939;-57
2023/04/09 11:25:06;;;;;;;;;;;;;;;20.80;33.15;100757.38;5055389;28;19945;-57
2023/04/09 11:27:37;;;;;;;;;;;;;;;20.74;31.07;100763.16;5057867;28;20402;-57
2023/04/09 11:30:03;;;;;;;;;;;;;;;20.45;31.85;100761.41;5072815;28;19990;-57
2023/04/09 11:32:32;;;;;;;;;;;;;;;20.62;33.85;100763.06;5057856;28;20656;-57
2023/04/09 11:34:57;;;;;;;;;;;;;;;20.41;32.37;100765.22;5067061;28;19928;-57
2023/04/09 11:37:22;;;;;;;;;;;;;;;19.46;32.80;100757.41;5072775;28;19927;-57
2023/04/09 11:39:50;;;;;;;;;;;;;;;19.57;32.86;100754.97;5071887;28;19932;-58
2023/04/09 11:42:15;;;;;;;;;;;;;;;18.84;33.22;100753.75;5071729;28;20456;-57
2023/04/09 11:44:41;;;;;;;;;;;;;;;18.97;35.03;100753.00;5072679;28;19982;-57
2023/04/09 11:47:08;;;;;;;;;;;;;;;19.44;33.45;100747.66;5069311;28;19944;-57
2023/04/09 11:49:33;;;;;;;;;;;;;;;20.25;33.11;100755.44;5072796;28;19961;-57
2023/04/09 11:52:00;;;;;;;;;;;;;;;20.53;31.97;100756.38;5067781;28;19931;-57
2023/04/09 11:54:30;;;;;;;;;;;;;;;21.18;32.29;100752.28;5052531;28;19931;-57
2023/04/09 11:56:57;;;;;;;;;;;;;;;21.66;30.92;100748.19;5052411;28;19965;-57
2023/04/09 11:59:23;;;;;;;;;;;;;;;21.33;30.52;100745.88;5072283;28;19940;-57
2023/04/09 12:01:49;;;;;;;;;;;;;;;22.60;30.49;100739.91;5062981;28;20093;-58
2023/04/09 12:04:21;;;;;;;;;;;;;;;22.73;30.13;100744.38;5064576;28;19934;-57
2023/04/09 12:06:47;;;;;;;;;;;;;;;23.44;28.78;100737.31;5062762;28;19959;-57
2023/04/09 12:09:13;;;;;;;;;;;;;;;22.76;27.98;100744.13;5072246;28;19959;-58
2023/04/09 12:11:40;;;;;;;;;;;;;;;22.59;28.43;100738.16;5069896;28;20402;-57
2023/04/09 12:14:06;;;;;;;;;;;;;;;23.47;28.54;100740.78;5072401;28;19926;-57
2023/04/09 12:16:33;;;;;;;;;;;;;;;24.31;30.13;100734.28;5062374;28;20411;-57
2023/04/09 12:19:08;;;;;;;;;;;;;;;24.70;30.14;100736.63;5060299;28;19944;-57
2023/04/09 12:21:50;;;;;;;;;;;;;;;24.06;28.94;100727.16;5072216;28;19930;-58
2023/04/09 12:24:16;;;;;;;;;;;;;;;23.10;28.49;100745.28;5072098;28;19982;-57
2023/04/09 12:26:41;;;;;;;;;;;;;;;22.52;32.30;100740.41;5054983;28;19952;-57
2023/04/09 12:29:07;;;;;;;;;;;;;;;22.54;32.93;100737.59;5069273;28;19956;-57
2023/04/09 12:31:32;;;;;;;;;;;;;;;22.89;31.33;100745.00;5071718;28;19932;-57
2023/04/09 12:33:57;;;;;;;;;;;;;;;22.11;30.00;100731.56;5069534;28;19942;-56
2023/04/09 12:36:23;;;;;;;;;;;;;;;21.54;32.41;100727.34;5055490;28;19942;-57
2023/04/09 12:38:48;;;;;;;;;;;;;;;22.22;33.88;100720.00;5062767;28;19936;-57